Terminal Aerodrome Forecast
Issued by NWS Nashville, TN

Home | Current Version | Previous Version | Text Only | Print | Product List | Glossary On
Versions: 1 2 3 4 5 6 7 8 9 10 11 12 13 14 15 16 17 18
000
FTUS44 KOHX 300520
TAFBNA
TAF
KBNA 300520Z 3006/0106 00000KT 5SM BR SKC
      TEMPO 3006/3008 2SM BR FEW007 SCT025
     FM300800 00000KT 2SM BR SCT007 SCT025
      TEMPO 3009/3013 3/4SM BR BKN007 BKN025
     FM301400 26005KT P6SM BKN025
     FM301700 27006KT P6SM SCT025 BKN035 PROB30 3018/3022 5SM -SHRA
      OVC025=

USA.gov is the U.S. government's official web portal to all federal, state and local government web resources and services.